Time;durP1;ratioP1;P1;durP2;ratioP2;P2;SDS_P1;SDS_P2;PMS_P1;PMS_P2;Temp;Humidity;BMP_temperature;BMP_pressure;BME280_temperature;BME280_humidity;BME280_pressure;Samples;Min_cycle;Max_cycle;Signal;HPM_P1;HPM_P2
2022/09/21 00:01:12;;;;;;;1.23;1.13;;;;;;;8.37;100.00;99898.69;6248973;22;20218;-80
2022/09/21 00:03:42;;;;;;;2.27;1.30;;;;;;;8.46;100.00;99893.97;6274190;22;20688;-79
2022/09/21 00:06:12;;;;;;;1.33;1.20;;;;;;;8.43;100.00;99897.06;6248664;22;20208;-80
2022/09/21 00:08:39;;;;;;;2.47;1.10;;;;;;;8.30;100.00;99901.34;6274670;22;20199;-80
2022/09/21 00:11:07;;;;;;;2.03;1.30;;;;;;;8.42;100.00;99898.91;6248378;22;20219;-79
2022/09/21 00:13:36;;;;;;;1.33;1.20;;;;;;;8.36;100.00;99899.69;6275563;22;20204;-79
2022/09/21 00:16:06;;;;;;;3.53;1.30;;;;;;;8.24;100.00;99899.41;6249360;22;20207;-80
2022/09/21 00:18:34;;;;;;;1.83;1.23;;;;;;;8.30;100.00;99900.50;6277288;22;20200;-80
2022/09/21 00:21:06;;;;;;;1.43;1.20;;;;;;;8.11;100.00;99899.34;6276391;22;20208;-79
2022/09/21 00:23:34;;;;;;;1.30;1.20;;;;;;;8.09;100.00;99911.22;6249095;22;20207;-79
2022/09/21 00:26:21;;;;;;;2.60;1.30;;;;;;;8.18;100.00;99897.53;6248420;22;20200;-79
2022/09/21 00:28:53;;;;;;;1.10;1.00;;;;;;;8.04;100.00;99916.31;6275715;22;20208;-79
2022/09/21 00:31:20;;;;;;;1.70;1.17;;;;;;;7.90;100.00;99907.41;6275955;22;20203;-79
2022/09/21 00:33:47;;;;;;;2.17;1.10;;;;;;;7.86;100.00;99907.00;6276067;22;20204;-79
2022/09/21 00:36:16;;;;;;;2.20;1.17;;;;;;;7.86;100.00;99909.66;6274942;22;20247;-79
2022/09/21 00:38:44;;;;;;;2.03;1.10;;;;;;;8.02;100.00;99908.53;6275568;22;20211;-78
2022/09/21 00:41:12;;;;;;;1.73;1.20;;;;;;;8.02;100.00;99915.72;6248813;22;20695;-78
2022/09/21 00:43:46;;;;;;;1.30;1.20;;;;;;;8.00;100.00;99909.75;6275550;22;20204;-78
2022/09/21 00:46:27;;;;;;;1.27;1.17;;;;;;;8.01;100.00;99922.91;6248198;22;20208;-78
2022/09/21 00:48:53;;;;;;;1.87;1.07;;;;;;;7.98;100.00;99913.41;6275598;22;20215;-78
2022/09/21 00:51:20;;;;;;;2.47;1.20;;;;;;;8.08;100.00;99915.75;6248608;22;20200;-78
2022/09/21 00:53:50;;;;;;;1.47;1.20;;;;;;;8.10;100.00;99910.22;6248834;22;20280;-78
2022/09/21 00:56:19;;;;;;;1.53;1.20;;;;;;;8.11;100.00;99918.03;6247531;22;20207;-79
2022/09/21 00:58:47;;;;;;;2.87;1.47;;;;;;;8.18;100.00;99902.03;6248909;22;20204;-79
2022/09/21 01:01:17;;;;;;;1.30;1.10;;;;;;;8.20;100.00;99898.16;6249055;22;20188;-79
2022/09/21 01:03:48;;;;;;;1.80;1.20;;;;;;;8.19;100.00;99907.19;6275123;22;20208;-78
2022/09/21 01:06:17;;;;;;;1.30;1.20;;;;;;;8.26;100.00;99909.88;6247851;22;20200;-78
2022/09/21 01:08:46;;;;;;;1.33;1.20;;;;;;;8.32;100.00;99898.44;6275014;22;20655;-79
2022/09/21 01:11:49;;;;;;;1.17;1.07;;;;;;;8.38;100.00;99909.16;6275218;22;20205;-78
2022/09/21 01:14:30;;;;;;;1.30;1.20;;;;;;;8.40;100.00;99904.44;6273021;22;20211;-78
2022/09/21 01:17:08;;;;;;;1.10;1.00;;;;;;;8.41;100.00;99905.25;6248485;22;20274;-78
2022/09/21 01:19:59;;;;;;;1.20;1.10;;;;;;;8.56;100.00;99897.13;6248530;22;20207;-78
2022/09/21 01:22:29;;;;;;;1.37;1.10;;;;;;;8.54;100.00;99899.97;6274911;22;20206;-78
2022/09/21 01:25:10;;;;;;;1.23;1.13;;;;;;;8.57;100.00;99907.59;6274909;22;20211;-78
2022/09/21 01:27:50;;;;;;;2.63;1.10;;;;;;;8.59;100.00;99902.03;6274223;22;20207;-78
2022/09/21 01:30:19;;;;;;;1.63;1.10;;;;;;;8.68;100.00;99904.34;6274497;22;20204;-78
2022/09/21 01:33:02;;;;;;;1.17;1.07;;;;;;;8.63;100.00;99904.13;6247970;22;20250;-77
2022/09/21 01:35:38;;;;;;;1.23;1.00;;;;;;;8.58;100.00;99897.75;6247891;22;20200;-78
2022/09/21 01:38:12;;;;;;;2.27;1.20;;;;;;;8.78;100.00;99904.78;6251190;22;20286;-80
2022/09/21 01:40:42;;;;;;;1.40;1.30;;;;;;;8.77;100.00;99902.34;6252185;22;20232;-80
2022/09/21 01:43:13;;;;;;;2.00;1.20;;;;;;;8.77;100.00;99907.69;6251537;22;20211;-80
2022/09/21 01:45:44;;;;;;;2.00;1.20;;;;;;;8.81;100.00;99909.75;6252202;22;20227;-80
2022/09/21 01:48:12;;;;;;;1.93;1.40;;;;;;;8.70;100.00;99907.66;6277882;22;20208;-80
2022/09/21 01:50:45;;;;;;;1.67;1.10;;;;;;;8.72;100.00;99908.28;6278530;22;20208;-80
2022/09/21 01:53:17;;;;;;;1.87;1.10;;;;;;;8.82;100.00;99914.03;6251856;22;20208;-80
2022/09/21 01:55:54;;;;;;;2.00;1.10;;;;;;;8.83;100.00;99909.53;6278731;22;20215;-80
2022/09/21 01:58:33;;;;;;;2.17;1.30;;;;;;;8.75;100.00;99909.72;6251276;22;20242;-79
2022/09/21 02:01:00;;;;;;;1.47;1.30;;;;;;;8.68;100.00;99911.53;6252305;22;20261;-80
2022/09/21 02:03:36;;;;;;;1.43;1.13;;;;;;;8.54;100.00;99916.00;6277946;22;20705;-80
2022/09/21 02:06:03;;;;;;;1.37;1.10;;;;;;;8.51;100.00;99911.06;6250451;22;20258;-80
2022/09/21 02:08:31;;;;;;;3.50;1.23;;;;;;;8.58;100.00;99919.13;6251453;22;20200;-80
2022/09/21 02:10:59;;;;;;;1.40;1.30;;;;;;;8.57;100.00;99912.13;6251929;22;20231;-80
2022/09/21 02:13:31;;;;;;;2.30;1.40;;;;;;;8.51;100.00;99921.75;6250351;22;20222;-79
2022/09/21 02:16:07;;;;;;;1.53;1.30;;;;;;;8.53;100.00;99918.88;6251750;22;20232;-80
2022/09/21 02:18:56;;;;;;;1.47;1.37;;;;;;;8.63;100.00;99917.47;6280149;22;20207;-80
2022/09/21 02:21:39;;;;;;;1.63;1.20;;;;;;;8.56;100.00;99919.31;6280024;22;20235;-81
2022/09/21 02:24:24;;;;;;;1.97;1.30;;;;;;;8.54;100.00;99925.88;6279818;22;20212;-81
2022/09/21 02:27:03;;;;;;;1.47;1.20;;;;;;;8.48;100.00;99926.66;6280328;22;20211;-80
2022/09/21 02:29:48;;;;;;;2.63;1.20;;;;;;;8.47;100.00;99931.19;6280501;22;20730;-80
2022/09/21 02:32:34;;;;;;;1.67;1.20;;;;;;;8.48;100.00;99924.00;6252399;22;20211;-80
2022/09/21 02:35:21;;;;;;;3.33;1.90;;;;;;;8.37;100.00;99918.19;6252898;22;20265;-80
2022/09/21 02:37:55;;;;;;;2.70;2.10;;;;;;;8.35;100.00;99928.22;6279334;22;20203;-80
2022/09/21 02:40:30;;;;;;;2.67;2.20;;;;;;;8.34;100.00;99931.13;6251624;22;20191;-80
2022/09/21 02:43:01;;;;;;;2.20;1.50;;;;;;;8.30;100.00;99943.22;6252352;22;20268;-80
2022/09/21 02:45:33;;;;;;;1.53;1.40;;;;;;;8.29;100.00;99941.53;6252390;22;20208;-80
2022/09/21 02:48:15;;;;;;;2.40;1.43;;;;;;;8.32;100.00;99927.81;6252431;22;20262;-80
2022/09/21 02:51:09;;;;;;;1.90;1.30;;;;;;;8.37;100.00;99936.06;6252741;22;20287;-80
2022/09/21 02:53:37;;;;;;;2.23;1.20;;;;;;;8.51;100.00;99929.75;6236081;23;20240;-80
2022/09/21 02:56:06;;;;;;;2.13;1.40;;;;;;;8.49;100.00;99937.13;6247955;22;20201;-80
2022/09/21 02:58:40;;;;;;;1.20;1.10;;;;;;;8.49;100.00;99933.66;6240127;22;20211;-81
2022/09/21 03:01:09;;;;;;;1.30;1.20;;;;;;;8.61;100.00;99945.41;6250915;23;20213;-80
2022/09/21 03:03:37;;;;;;;1.40;1.30;;;;;;;8.68;100.00;99941.72;6250174;23;20279;-81
2022/09/21 03:06:03;;;;;;;2.83;1.10;;;;;;;8.67;100.00;99936.63;6251333;22;20177;-80
2022/09/21 03:08:30;;;;;;;3.57;1.20;;;;;;;8.59;100.00;99931.41;6252789;22;20287;-81
2022/09/21 03:10:57;;;;;;;1.40;1.13;;;;;;;8.81;100.00;99938.31;6245439;23;20239;-79
2022/09/21 03:13:24;;;;;;;1.43;1.30;;;;;;;8.80;100.00;99942.00;6245708;22;20703;-80
2022/09/21 03:16:00;;;;;;;2.00;1.20;;;;;;;8.76;100.00;99948.78;6244280;23;20209;-79
2022/09/21 03:18:27;;;;;;;1.93;1.30;;;;;;;8.75;100.00;99947.94;6244578;23;20200;-79
2022/09/21 03:20:54;;;;;;;1.50;1.30;;;;;;;8.77;100.00;99948.53;6244715;23;20676;-80
2022/09/21 03:23:21;;;;;;;2.37;1.40;;;;;;;8.79;100.00;99945.69;6246339;23;20236;-80
2022/09/21 03:25:48;;;;;;;2.03;1.60;;;;;;;8.82;100.00;99954.13;6247071;23;20160;-80
2022/09/21 03:28:15;;;;;;;2.33;1.50;;;;;;;8.82;100.00;99940.75;6245307;22;20583;-80
2022/09/21 03:30:43;;;;;;;1.30;1.20;;;;;;;8.70;100.00;99939.69;6248026;23;20572;-80
2022/09/21 03:33:11;;;;;;;1.50;1.40;;;;;;;8.75;100.00;99939.94;6249867;22;20211;-81
2022/09/21 03:35:38;;;;;;;1.40;1.30;;;;;;;8.76;100.00;99946.09;6248406;23;20215;-80
2022/09/21 03:38:05;;;;;;;1.77;1.30;;;;;;;8.72;100.00;99947.53;6273518;22;20209;-81
2022/09/21 03:40:31;;;;;;;1.40;1.30;;;;;;;8.92;100.00;99950.25;6247506;22;20208;-79
2022/09/21 03:42:58;;;;;;;2.83;1.60;;;;;;;8.91;100.00;99945.94;6249544;22;20212;-80
2022/09/21 03:45:26;;;;;;;2.77;1.40;;;;;;;8.81;100.00;99952.50;6259804;22;20211;-80
2022/09/21 03:47:57;;;;;;;1.47;1.37;;;;;;;8.75;100.00;99953.28;6246578;22;20215;-80
2022/09/21 03:50:25;;;;;;;1.87;1.60;;;;;;;8.69;100.00;99953.25;6247681;22;20220;-80
2022/09/21 03:52:52;;;;;;;1.63;1.50;;;;;;;8.72;100.00;99953.69;6251782;22;20208;-81
2022/09/21 03:55:18;;;;;;;1.30;1.20;;;;;;;8.77;100.00;99956.56;6256045;22;20231;-81
2022/09/21 03:57:45;;;;;;;2.17;1.30;;;;;;;8.83;100.00;99966.47;6255073;22;20207;-81
2022/09/21 04:00:12;;;;;;;2.20;1.50;;;;;;;8.80;100.00;99958.84;6254500;22;20223;-81
2022/09/21 04:02:39;;;;;;;1.60;1.40;;;;;;;8.82;100.00;99963.97;6253173;23;20219;-81
2022/09/21 04:05:08;;;;;;;2.47;1.37;;;;;;;8.69;100.00;99974.63;6254086;22;20209;-79
2022/09/21 04:07:35;;;;;;;1.60;1.37;;;;;;;8.50;100.00;99976.16;6247435;22;20208;-80
2022/09/21 04:10:06;;;;;;;2.23;1.50;;;;;;;8.58;100.00;99972.53;6246815;22;20208;-79
2022/09/21 04:12:35;;;;;;;2.83;1.40;;;;;;;8.53;100.00;99983.81;6248486;22;20211;-80
2022/09/21 04:15:04;;;;;;;1.47;1.33;;;;;;;8.46;100.00;99982.94;6248128;22;20235;-80
2022/09/21 04:17:30;;;;;;;1.40;1.27;;;;;;;8.39;100.00;99984.75;6247959;22;20212;-80
2022/09/21 04:19:57;;;;;;;1.43;1.30;;;;;;;8.46;100.00;99982.09;6248311;22;20258;-80
2022/09/21 04:22:24;;;;;;;2.97;1.50;;;;;;;8.48;100.00;99986.25;6278489;22;20234;-80
2022/09/21 04:24:51;;;;;;;1.63;1.30;;;;;;;8.44;100.00;99994.84;6279444;22;20671;-80
2022/09/21 04:27:17;;;;;;;1.93;1.30;;;;;;;8.34;100.00;99984.53;6277400;22;20239;-80
2022/09/21 04:29:44;;;;;;;2.10;1.60;;;;;;;8.33;100.00;99988.19;6278952;22;20200;-79
2022/09/21 04:32:11;;;;;;;2.13;1.43;;;;;;;8.48;100.00;99994.25;6277085;22;20216;-77
2022/09/21 04:34:38;;;;;;;1.67;1.50;;;;;;;8.48;100.00;100006.78;6225148;22;20216;-78
2022/09/21 04:37:09;;;;;;;1.40;1.30;;;;;;;8.40;100.00;99994.38;6263714;22;20205;-78
2022/09/21 04:39:36;;;;;;;1.80;1.70;;;;;;;8.49;100.00;100006.56;6246368;22;20275;-78
2022/09/21 04:42:03;;;;;;;1.70;1.60;;;;;;;8.58;100.00;100009.91;6246072;22;20263;-78
2022/09/21 04:44:30;;;;;;;1.70;1.47;;;;;;;8.45;100.00;99999.97;6246375;22;20228;-78
2022/09/21 04:46:57;;;;;;;2.77;1.43;;;;;;;8.34;100.00;100005.88;6246590;22;20205;-78
2022/09/21 04:49:23;;;;;;;5.87;2.27;;;;;;;8.29;100.00;100011.81;6246528;22;20215;-77
2022/09/21 04:51:50;;;;;;;2.40;1.60;;;;;;;8.22;100.00;100013.56;6246339;22;20216;-78
2022/09/21 04:54:17;;;;;;;2.27;1.50;;;;;;;8.29;100.00;100021.63;6244975;22;20662;-78
2022/09/21 04:56:44;;;;;;;2.67;1.53;;;;;;;8.23;100.00;100015.22;6246436;22;20570;-78
2022/09/21 04:59:10;;;;;;;2.00;1.80;;;;;;;8.20;100.00;100014.78;6246456;22;20688;-78
2022/09/21 05:01:37;;;;;;;2.17;1.70;;;;;;;8.32;100.00;100019.41;6246010;22;20208;-78
2022/09/21 05:04:04;;;;;;;2.60;2.00;;;;;;;8.41;100.00;100017.41;6245966;22;20200;-78
2022/09/21 05:06:32;;;;;;;1.97;1.70;;;;;;;8.33;100.00;100023.75;6246424;22;20207;-78
2022/09/21 05:11:45;;;;;;;2.07;1.83;;;;;;;8.40;100.00;100021.09;6244853;22;20200;-78
2022/09/21 05:14:11;;;;;;;2.07;1.80;;;;;;;8.39;100.00;100030.97;6245756;22;20254;-78
2022/09/21 05:16:38;;;;;;;2.93;1.90;;;;;;;8.36;100.00;100028.66;6245328;23;20185;-78
2022/09/21 05:19:05;;;;;;;2.53;1.93;;;;;;;8.49;100.00;100025.25;6246253;22;20244;-78
2022/09/21 05:21:32;;;;;;;1.80;1.70;;;;;;;8.47;100.00;100034.50;6245772;22;20275;-78
2022/09/21 05:23:58;;;;;;;2.10;1.83;;;;;;;8.48;100.00;100026.28;6246414;22;20259;-78
2022/09/21 05:26:25;;;;;;;3.43;2.10;;;;;;;8.50;100.00;100026.91;6245427;22;20691;-78
2022/09/21 05:28:52;;;;;;;2.20;2.00;;;;;;;8.66;100.00;100031.13;6244375;22;20207;-78
2022/09/21 05:31:29;;;;;;;4.60;2.07;;;;;;;8.76;100.00;100031.59;6246325;22;20208;-78
2022/09/21 05:33:56;;;;;;;2.83;1.93;;;;;;;8.89;100.00;100038.84;6246380;22;20208;-78
2022/09/21 05:36:31;;;;;;;3.00;2.30;;;;;;;8.92;100.00;100030.41;6243911;22;20200;-78
2022/09/21 05:38:59;;;;;;;2.97;2.20;;;;;;;9.03;100.00;100029.84;6244365;22;20208;-78
2022/09/21 05:41:26;;;;;;;2.43;2.20;;;;;;;9.19;100.00;100034.84;6244113;22;20205;-78
2022/09/21 05:43:53;;;;;;;3.07;2.50;;;;;;;9.34;100.00;100038.16;6244384;22;20225;-78
2022/09/21 05:46:52;;;;;;;2.57;2.37;;;;;;;9.39;100.00;100042.91;6243640;22;20684;-78
2022/09/21 05:49:28;;;;;;;2.33;2.13;;;;;;;9.63;100.00;100045.03;6193426;23;20292;-78
2022/09/21 05:52:01;;;;;;;4.03;2.17;;;;;;;9.90;100.00;100043.19;6244186;22;20232;-78
2022/09/21 05:54:46;;;;;;;2.53;2.30;;;;;;;9.97;100.00;100050.22;6274277;22;20258;-78
2022/09/21 05:57:14;;;;;;;2.23;2.03;;;;;;;10.24;100.00;100045.72;6274810;22;20211;-78
2022/09/21 05:59:58;;;;;;;2.63;2.43;;;;;;;10.43;100.00;100046.72;6248125;22;20204;-78
2022/09/21 06:02:46;;;;;;;2.43;2.20;;;;;;;10.75;100.00;100053.88;6247394;22;20234;-78
2022/09/21 06:05:14;;;;;;;2.47;2.00;;;;;;;11.07;100.00;100053.97;6274824;22;20542;-78
2022/09/21 06:07:40;;;;;;;1.90;1.77;;;;;;;11.22;100.00;100039.25;6274536;22;20207;-78
2022/09/21 06:10:08;;;;;;;2.30;2.10;;;;;;;11.45;100.00;100052.13;6273974;22;20204;-78
2022/09/21 06:12:35;;;;;;;2.40;2.10;;;;;;;11.87;100.00;100050.66;6247616;22;20211;-78
2022/09/21 06:15:03;;;;;;;3.27;2.30;;;;;;;11.90;100.00;100051.03;6274985;22;20204;-78
2022/09/21 06:17:31;;;;;;;2.70;2.10;;;;;;;12.14;100.00;100060.16;6274511;22;20196;-78
2022/09/21 06:19:58;;;;;;;3.60;2.37;;;;;;;12.21;100.00;100057.41;6273612;22;20208;-78
2022/09/21 06:22:24;;;;;;;2.57;2.10;;;;;;;12.09;100.00;100059.97;6273309;22;20204;-79
2022/09/21 06:24:51;;;;;;;2.33;2.00;;;;;;;12.14;100.00;100059.31;6247056;22;20551;-78
2022/09/21 06:27:17;;;;;;;2.10;2.00;;;;;;;11.98;100.00;100066.06;6274226;22;20734;-78
2022/09/21 06:29:44;;;;;;;1.87;1.77;;;;;;;12.16;100.00;100068.81;6273528;22;20664;-78
2022/09/21 06:32:11;;;;;;;2.70;2.00;;;;;;;12.14;100.00;100062.84;6272058;22;20206;-78
2022/09/21 06:34:37;;;;;;;2.00;1.80;;;;;;;12.44;98.59;100067.53;6274076;22;20223;-78
2022/09/21 06:37:04;;;;;;;2.00;1.90;;;;;;;12.69;96.70;100068.34;6274030;22;20215;-78
2022/09/21 06:39:31;;;;;;;2.93;2.37;;;;;;;12.69;93.15;100069.13;6274552;22;20204;-78
2022/09/21 06:41:58;;;;;;;1.90;1.80;;;;;;;12.82;95.18;100075.44;6274620;22;20659;-78
2022/09/21 06:44:25;;;;;;;2.30;2.10;;;;;;;12.71;94.01;100068.94;6274219;22;20204;-78
2022/09/21 06:46:51;;;;;;;3.10;2.10;;;;;;;12.64;99.50;100085.13;6274246;22;20262;-78
2022/09/21 06:49:18;;;;;;;2.53;2.10;;;;;;;12.89;95.28;100074.31;6274104;22;20219;-78
2022/09/21 06:51:46;;;;;;;2.07;1.90;;;;;;;12.82;91.59;100089.72;6273760;22;20655;-78
2022/09/21 06:54:13;;;;;;;2.67;2.07;;;;;;;12.86;92.90;100087.38;6246611;22;20207;-79
2022/09/21 06:56:42;;;;;;;1.90;1.73;;;;;;;12.96;89.92;100087.69;6274120;22;20655;-78
2022/09/21 06:59:08;;;;;;;2.43;2.20;;;;;;;13.01;91.81;100086.00;6274088;22;20204;-79
2022/09/21 07:01:35;;;;;;;2.67;1.90;;;;;;;13.34;88.64;100088.31;6272948;22;20770;-80
2022/09/21 07:04:02;;;;;;;2.23;1.80;;;;;;;13.54;87.62;100098.81;6272441;22;20257;-78
2022/09/21 07:06:28;;;;;;;2.73;2.03;;;;;;;13.59;87.92;100096.25;6273026;22;20215;-79
2022/09/21 07:08:55;;;;;;;3.03;1.80;;;;;;;13.71;85.64;100093.63;6272728;22;20206;-78
2022/09/21 07:11:42;;;;;;;2.30;2.10;;;;;;;14.16;83.31;100097.50;6272945;22;20207;-80
2022/09/21 07:14:08;;;;;;;1.90;1.80;;;;;;;14.49;77.32;100094.28;6272716;22;20200;-78
2022/09/21 07:16:35;;;;;;;1.97;1.77;;;;;;;14.55;75.44;100098.75;6272846;22;20199;-78
2022/09/21 07:19:03;;;;;;;3.03;1.70;;;;;;;14.42;75.46;100102.47;6272709;22;20241;-77
2022/09/21 07:21:37;;;;;;;1.70;1.60;;;;;;;14.66;74.08;100108.69;6272570;22;20208;-80
2022/09/21 07:24:03;;;;;;;3.77;1.80;;;;;;;14.64;72.49;100100.03;6272388;22;20204;-76
2022/09/21 07:26:37;;;;;;;1.73;1.40;;;;;;;14.10;72.93;100101.94;6272905;22;20296;-78
2022/09/21 07:29:03;;;;;;;1.93;1.67;;;;;;;14.17;73.24;100104.53;6272718;22;20208;-77
2022/09/21 07:31:30;;;;;;;2.40;1.63;;;;;;;14.51;72.75;100103.75;6272948;22;20295;-79
2022/09/21 07:33:58;;;;;;;1.70;1.60;;;;;;;14.70;72.22;100107.16;6272980;22;20656;-79
2022/09/21 07:36:24;;;;;;;1.37;1.27;;;;;;;14.26;71.16;100099.63;6271800;22;20276;-78
2022/09/21 07:38:52;;;;;;;1.87;1.57;;;;;;;14.49;70.69;100108.59;6272847;22;20212;-77
2022/09/21 07:41:19;;;;;;;2.20;1.50;;;;;;;14.51;70.59;100108.38;6271437;22;20258;-78
2022/09/21 07:43:46;;;;;;;2.10;1.60;;;;;;;14.43;70.26;100103.28;6272632;22;20204;-78
2022/09/21 07:46:14;;;;;;;1.67;1.40;;;;;;;14.14;72.55;100112.25;6272421;22;20235;-78
2022/09/21 07:48:40;;;;;;;1.60;1.33;;;;;;;14.20;73.16;100112.13;6246202;22;20212;-78
2022/09/21 07:51:09;;;;;;;1.50;1.40;;;;;;;14.15;74.13;100103.94;6246424;22;20208;-78
2022/09/21 07:53:38;;;;;;;1.70;1.60;;;;;;;14.25;74.08;100114.97;6272385;22;20208;-79
2022/09/21 07:56:07;;;;;;;1.50;1.40;;;;;;;14.38;72.28;100109.38;6245065;22;20213;-78
2022/09/21 08:01:21;;;;;;;2.77;1.47;;;;;;;14.27;74.73;100112.03;6249444;22;20592;-80
2022/09/21 08:03:49;;;;;;;2.03;1.40;;;;;;;13.93;74.73;100117.13;6272347;22;20545;-79
2022/09/21 08:06:17;;;;;;;1.70;1.50;;;;;;;14.25;74.07;100106.06;6245201;22;20206;-80
2022/09/21 08:08:46;;;;;;;2.10;1.40;;;;;;;13.94;75.72;100101.78;6244469;22;20200;-78
2022/09/21 08:11:18;;;;;;;1.97;1.10;;;;;;;14.11;74.88;100106.25;6246167;22;20205;-79
2022/09/21 08:13:45;;;;;;;4.13;1.77;;;;;;;14.27;74.49;100107.47;6246701;22;20936;-79
2022/09/21 08:16:11;;;;;;;1.60;1.50;;;;;;;14.40;74.55;100110.00;6272632;22;20664;-80
2022/09/21 08:18:40;;;;;;;2.47;1.40;;;;;;;14.50;73.95;100110.22;6272828;22;20211;-81
2022/09/21 08:21:09;;;;;;;1.50;1.20;;;;;;;14.50;73.83;100112.09;6272587;22;20209;-80
2022/09/21 08:23:41;;;;;;;2.23;1.70;;;;;;;14.45;73.65;100112.81;6245664;22;20662;-80
2022/09/21 08:26:15;;;;;;;1.57;1.30;;;;;;;14.37;73.60;100107.72;6246473;22;20675;-79
2022/09/21 08:28:42;;;;;;;1.77;1.20;;;;;;;14.56;74.10;100108.47;6245728;22;20214;-79
2022/09/21 08:31:09;;;;;;;1.53;1.30;;;;;;;14.65;71.91;100115.13;6272758;22;20210;-80
2022/09/21 08:33:36;;;;;;;2.37;1.03;;;;;;;14.48;71.45;100117.72;6272394;22;20214;-78
2022/09/21 08:36:03;;;;;;;1.43;1.23;;;;;;;14.10;74.30;100106.50;6272669;22;20615;-79
2022/09/21 08:38:34;;;;;;;1.90;1.70;;;;;;;14.18;73.48;100108.06;6274517;22;20209;-79
2022/09/21 08:41:03;;;;;;;1.33;1.23;;;;;;;13.76;72.91;100101.84;6247853;22;20205;-79
2022/09/21 08:43:39;;;;;;;1.60;1.30;;;;;;;13.58;76.00;100116.13;6248571;22;20204;-79
2022/09/21 08:46:09;;;;;;;2.23;1.57;;;;;;;13.61;76.62;100108.44;6247982;22;20226;-79
2022/09/21 08:48:41;;;;;;;1.60;1.40;;;;;;;13.55;77.47;100111.22;6275498;22;20209;-79
2022/09/21 08:51:10;;;;;;;1.40;1.30;;;;;;;13.88;76.98;100102.69;6248502;22;20211;-78
2022/09/21 08:53:45;;;;;;;1.73;1.20;;;;;;;13.93;76.21;100108.22;6247781;22;20227;-79
2022/09/21 08:56:13;;;;;;;1.37;1.27;;;;;;;13.90;75.58;100109.50;6274392;22;20208;-79
2022/09/21 08:58:40;;;;;;;1.50;1.40;;;;;;;13.86;74.26;100108.28;6248155;22;20215;-79
2022/09/21 09:01:20;;;;;;;1.10;1.00;;;;;;;14.05;71.94;100109.06;6275085;22;20292;-78
2022/09/21 09:04:02;;;;;;;2.73;1.30;;;;;;;14.77;69.09;100115.16;6274919;22;20545;-78
2022/09/21 09:06:46;;;;;;;1.20;1.10;;;;;;;14.88;66.94;100115.13;6274288;22;20683;-79
2022/09/21 09:09:18;;;;;;;1.47;1.00;;;;;;;14.44;67.35;100108.47;6275073;22;20212;-80
2022/09/21 09:11:57;;;;;;;1.10;1.00;;;;;;;14.22;69.46;100111.91;6275250;22;20230;-79
2022/09/21 09:15:01;;;;;;;1.13;1.03;;;;;;;13.95;71.58;100111.50;6274659;22;20201;-78
2022/09/21 09:17:45;;;;;;;1.30;1.20;;;;;;;13.76;73.26;100102.66;6275210;22;20602;-78
2022/09/21 09:20:17;;;;;;;1.97;1.20;;;;;;;13.95;73.52;100106.13;6247088;22;20291;-81
2022/09/21 09:22:51;;;;;;;1.30;1.20;;;;;;;13.88;74.90;100103.50;6247553;22;20236;-79
2022/09/21 09:25:20;;;;;;;1.60;1.50;;;;;;;13.71;74.88;100102.53;6274663;22;20204;-79
2022/09/21 09:27:56;;;;;;;1.80;1.67;;;;;;;13.82;75.25;100092.81;6274329;22;20652;-79
2022/09/21 09:30:25;;;;;;;1.47;1.37;;;;;;;14.11;75.46;100092.78;6273384;22;20210;-78
2022/09/21 09:32:54;;;;;;;1.77;1.50;;;;;;;14.04;71.22;100092.06;6274682;22;20210;-78
2022/09/21 09:35:31;;;;;;;1.60;1.40;;;;;;;14.13;71.23;100097.13;6274841;22;20258;-79
2022/09/21 09:38:13;;;;;;;1.60;1.37;;;;;;;14.16;73.19;100093.97;6248270;22;20444;-78
2022/09/21 09:40:47;;;;;;;1.50;1.40;;;;;;;14.58;74.66;100102.84;6247326;22;20209;-79
2022/09/21 09:43:37;;;;;;;1.40;1.30;;;;;;;14.52;71.17;100096.50;6247385;22;20201;-79
2022/09/21 09:46:09;;;;;;;1.53;1.20;;;;;;;14.30;68.97;100098.91;6230129;22;20235;-78
2022/09/21 09:48:48;;;;;;;1.33;1.23;;;;;;;14.59;68.84;100101.78;6274270;22;20258;-80
2022/09/21 09:51:19;;;;;;;1.60;1.50;;;;;;;14.46;70.43;100092.84;6274144;22;20211;-79
2022/09/21 09:53:46;;;;;;;2.03;1.10;;;;;;;14.71;67.63;100094.50;6273972;22;20666;-78
2022/09/21 09:56:13;;;;;;;1.50;1.40;;;;;;;14.68;66.50;100098.50;6273502;22;20212;-78
2022/09/21 09:58:49;;;;;;;2.27;1.53;;;;;;;14.52;69.68;100096.50;6274195;22;20247;-79
2022/09/21 10:01:37;;;;;;;2.47;1.40;;;;;;;14.54;70.33;100097.94;6247049;22;20262;-78
2022/09/21 10:04:08;;;;;;;1.40;1.30;;;;;;;14.36;72.51;100091.81;6272660;22;20211;-78
2022/09/21 10:06:36;;;;;;;1.33;1.20;;;;;;;14.31;67.69;100088.97;6273752;22;20212;-78
2022/09/21 10:09:30;;;;;;;1.57;1.13;;;;;;;14.37;66.08;100088.06;6247156;22;20700;-78
2022/09/21 10:12:02;;;;;;;2.07;1.40;;;;;;;14.17;67.86;100088.34;6274339;22;20258;-79
2022/09/21 10:14:35;;;;;;;1.20;1.10;;;;;;;14.40;68.57;100087.59;6248591;22;20656;-78
2022/09/21 10:17:06;;;;;;;2.27;1.10;;;;;;;14.93;67.42;100074.78;6273577;22;20691;-79
2022/09/21 10:19:33;;;;;;;1.63;1.50;;;;;;;14.95;66.30;100077.25;6246951;22;20279;-79
2022/09/21 10:22:01;;;;;;;1.97;1.30;;;;;;;15.14;63.52;100080.63;6273329;22;20210;-78
2022/09/21 10:24:32;;;;;;;1.27;1.10;;;;;;;15.66;62.63;100084.13;6246277;22;20304;-78
2022/09/21 10:27:11;;;;;;;1.83;1.30;;;;;;;15.64;61.40;100083.53;6273192;22;20207;-79
2022/09/21 10:29:46;;;;;;;0.93;0.93;;;;;;;15.86;59.34;100076.41;6221311;22;20286;-79
2022/09/21 10:32:13;;;;;;;1.77;1.10;;;;;;;15.79;59.00;100078.41;6246139;22;20210;-79
2022/09/21 10:34:59;;;;;;;1.40;1.30;;;;;;;15.82;59.93;100078.75;6273048;22;20694;-78
2022/09/21 10:37:29;;;;;;;2.27;1.30;;;;;;;15.71;60.54;100066.13;6272936;22;20654;-79
2022/09/21 10:39:56;;;;;;;1.73;1.33;;;;;;;15.50;60.63;100066.75;6272548;22;20691;-78
2022/09/21 10:42:23;;;;;;;1.50;1.30;;;;;;;15.07;61.02;100055.66;6272344;22;20208;-78
2022/09/21 10:45:06;;;;;;;3.47;1.20;;;;;;;15.34;62.05;100062.97;6273039;22;20219;-79
2022/09/21 10:47:39;;;;;;;1.70;1.07;;;;;;;15.54;60.94;100061.75;6273078;22;20210;-78
2022/09/21 10:50:27;;;;;;;1.10;0.90;;;;;;;15.90;58.57;100058.63;6272169;22;20216;-79
2022/09/21 10:52:59;;;;;;;2.57;1.10;;;;;;;16.06;58.24;100067.81;6246216;22;20848;-79
2022/09/21 10:55:27;;;;;;;1.70;1.10;;;;;;;16.43;57.95;100066.25;6272905;22;20210;-79
2022/09/21 10:57:54;;;;;;;1.60;1.30;;;;;;;16.82;56.81;100077.13;6246025;22;20210;-79
2022/09/21 11:00:23;;;;;;;1.47;1.20;;;;;;;16.93;54.82;100052.69;6245183;22;20208;-79
2022/09/21 11:02:50;;;;;;;2.43;1.10;;;;;;;17.00;54.29;100047.88;6273071;22;20251;-79
2022/09/21 11:05:33;;;;;;;2.43;1.37;;;;;;;16.61;55.55;100062.50;6273596;22;20192;-79
2022/09/21 11:08:19;;;;;;;2.07;1.33;;;;;;;16.42;57.22;100069.22;6273334;22;20204;-79
2022/09/21 11:11:13;;;;;;;2.10;1.50;;;;;;;16.10;56.17;100069.78;6245959;22;20274;-80
2022/09/21 11:13:46;;;;;;;2.07;1.50;;;;;;;15.81;57.96;100055.50;6246680;22;20208;-80
2022/09/21 11:16:33;;;;;;;1.40;1.10;;;;;;;15.57;59.39;100055.84;6273163;22;20261;-79
2022/09/21 11:19:12;;;;;;;1.13;1.03;;;;;;;15.99;57.68;100061.75;6273422;22;20227;-80
2022/09/21 11:21:45;;;;;;;2.03;1.10;;;;;;;16.29;57.55;100057.66;6246072;22;20216;-80
2022/09/21 11:24:18;;;;;;;1.20;1.10;;;;;;;16.49;55.86;100057.16;6272643;22;20266;-81
2022/09/21 11:27:13;;;;;;;2.83;1.00;;;;;;;16.36;54.49;100065.59;6271352;22;20215;-79
2022/09/21 11:30:10;;;;;;;0.80;0.80;;;;;;;16.46;55.40;100060.34;6273064;22;20212;-79
2022/09/21 11:32:40;;;;;;;1.47;1.10;;;;;;;16.15;60.89;100069.84;6238102;22;20203;-81
2022/09/21 11:35:26;;;;;;;1.37;1.27;;;;;;;15.98;61.39;100063.63;6273462;22;20193;-79
2022/09/21 11:38:12;;;;;;;1.73;0.90;;;;;;;15.83;60.24;100060.66;6273113;22;20771;-80
2022/09/21 11:40:54;;;;;;;2.77;1.10;;;;;;;15.37;59.05;100061.66;6220579;22;20232;-80
2022/09/21 11:43:33;;;;;;;2.13;1.10;;;;;;;15.17;61.42;100061.25;6273029;22;20674;-79
2022/09/21 11:46:00;;;;;;;1.40;1.00;;;;;;;14.84;60.57;100060.00;6272857;22;20221;-78
2022/09/21 11:48:43;;;;;;;1.13;0.93;;;;;;;15.12;61.66;100061.13;6271312;22;20210;-80
2022/09/21 11:51:22;;;;;;;0.87;0.87;;;;;;;15.51;61.72;100059.50;6271300;22;20707;-78
2022/09/21 11:54:14;;;;;;;0.80;0.80;;;;;;;15.59;57.94;100046.44;6271850;22;20207;-78
2022/09/21 11:56:55;;;;;;;0.93;0.90;;;;;;;15.71;56.63;100049.09;6272063;22;20215;-78